Time;durP1;ratioP1;P1;durP2;ratioP2;P2;SDS_P1;SDS_P2;PMS_P1;PMS_P2;Temp;Humidity;BMP_temperature;BMP_pressure;BME280_temperature;BME280_humidity;BME280_pressure;Samples;Min_cycle;Max_cycle;Signal;HPM_P1;HPM_P2
2021/03/21 00:01:07;;;;;;;5.13;3.00;;;5.40;99.90;;;;;;4987941;28;20767;-78
2021/03/21 00:03:36;;;;;;;6.67;2.87;;;5.40;99.90;;;;;;4988590;28;20233;-78
2021/03/21 00:06:04;;;;;;;4.80;2.73;;;5.30;99.90;;;;;;4988459;28;20324;-78
2021/03/21 00:08:34;;;;;;;4.20;3.20;;;5.40;99.90;;;;;;4988588;28;20987;-79
2021/03/21 00:11:05;;;;;;;3.97;2.70;;;5.40;99.90;;;;;;4987965;28;20248;-78
2021/03/21 00:13:33;;;;;;;5.37;2.87;;;5.40;99.90;;;;;;4990903;28;20702;-78
2021/03/21 00:16:06;;;;;;;4.17;3.10;;;5.40;99.90;;;;;;5005264;28;20237;-79
2021/03/21 00:18:36;;;;;;;4.53;2.90;;;5.40;99.90;;;;;;4999019;28;20808;-79
2021/03/21 00:21:06;;;;;;;4.73;3.03;;;5.40;99.90;;;;;;4992299;28;20268;-78
2021/03/21 00:23:34;;;;;;;4.67;3.10;;;5.40;99.90;;;;;;5015058;28;20292;-78
2021/03/21 00:26:04;;;;;;;3.97;3.17;;;5.40;99.90;;;;;;4992792;28;20774;-78
2021/03/21 00:28:34;;;;;;;5.07;2.90;;;5.40;99.90;;;;;;4990699;28;20256;-78
2021/03/21 00:31:05;;;;;;;5.20;2.63;;;5.40;99.90;;;;;;4991485;28;20303;-78
2021/03/21 00:33:36;;;;;;;5.50;2.70;;;5.40;99.90;;;;;;4991794;28;20256;-79
2021/03/21 00:36:06;;;;;;;5.53;2.93;;;5.40;99.90;;;;;;4991859;28;20476;-78
2021/03/21 00:38:36;;;;;;;7.03;3.20;;;5.40;99.90;;;;;;5009036;28;20231;-78
2021/03/21 00:41:06;;;;;;;3.77;2.67;;;5.40;99.90;;;;;;5011154;28;20513;-78
2021/03/21 00:43:34;;;;;;;5.47;2.73;;;5.40;99.90;;;;;;5006968;28;20392;-78
2021/03/21 00:46:03;;;;;;;5.27;2.97;;;5.40;99.90;;;;;;5006980;28;20322;-80
2021/03/21 00:48:35;;;;;;;4.83;3.17;;;5.50;99.90;;;;;;5000528;28;20310;-78
2021/03/21 00:51:04;;;;;;;4.33;3.17;;;5.50;99.90;;;;;;5000765;28;20237;-79
2021/03/21 00:53:32;;;;;;;8.33;3.50;;;5.50;99.90;;;;;;5006181;28;20248;-78
2021/03/21 00:56:00;;;;;;;4.77;3.43;;;5.50;99.90;;;;;;4991425;28;20287;-79
2021/03/21 00:58:27;;;;;;;5.17;3.93;;;5.50;99.90;;;;;;4991184;28;20237;-78
2021/03/21 01:00:59;;;;;;;6.43;3.93;;;5.50;99.90;;;;;;4990642;28;20284;-79
2021/03/21 01:03:27;;;;;;;6.13;4.27;;;5.50;99.90;;;;;;4990941;28;20485;-79
2021/03/21 01:05:58;;;;;;;8.93;5.07;;;5.60;99.90;;;;;;4991516;28;20593;-79
2021/03/21 01:08:30;;;;;;;6.70;5.33;;;5.60;99.90;;;;;;4991758;28;20246;-78
2021/03/21 01:11:00;;;;;;;9.97;5.47;;;5.50;99.90;;;;;;5006252;28;20237;-78
2021/03/21 01:13:28;;;;;;;7.47;5.50;;;5.60;99.90;;;;;;5006222;28;20245;-78
2021/03/21 01:15:56;;;;;;;10.17;6.27;;;5.70;99.90;;;;;;4998957;28;20232;-78
2021/03/21 01:18:28;;;;;;;7.93;6.17;;;5.70;99.90;;;;;;5002715;28;20248;-78
2021/03/21 01:20:56;;;;;;;8.47;6.40;;;5.70;99.90;;;;;;5020777;28;20507;-78
2021/03/21 01:23:23;;;;;;;11.30;6.60;;;5.70;99.90;;;;;;5010779;28;20294;-78
2021/03/21 01:25:52;;;;;;;12.40;7.73;;;5.70;99.90;;;;;;5009584;28;20241;-78
2021/03/21 01:28:25;;;;;;;11.30;6.87;;;5.70;99.90;;;;;;5025448;28;20233;-78
2021/03/21 01:30:56;;;;;;;12.27;7.47;;;5.70;99.90;;;;;;5010053;28;20236;-78
2021/03/21 01:33:26;;;;;;;12.73;8.17;;;5.70;99.90;;;;;;5010414;28;20236;-78
2021/03/21 01:35:55;;;;;;;10.57;7.37;;;5.70;99.90;;;;;;5010562;28;20268;-78
2021/03/21 01:38:23;;;;;;;13.70;8.27;;;5.70;99.90;;;;;;5009680;28;20295;-78
2021/03/21 01:40:56;;;;;;;16.10;8.17;;;5.70;99.90;;;;;;5003154;28;20321;-78
2021/03/21 01:43:30;;;;;;;14.43;8.17;;;5.70;99.90;;;;;;5000766;28;20240;-78
2021/03/21 01:45:58;;;;;;;14.17;7.70;;;5.70;99.90;;;;;;5001168;28;20304;-78
2021/03/21 01:48:37;;;;;;;12.43;7.47;;;5.70;99.90;;;;;;4999097;28;20241;-78
2021/03/21 01:51:08;;;;;;;15.33;7.60;;;5.80;99.90;;;;;;4993817;28;20247;-78
2021/03/21 01:53:40;;;;;;;10.93;6.10;;;5.70;99.90;;;;;;4990677;28;20237;-78
2021/03/21 01:56:09;;;;;;;9.53;6.03;;;5.80;99.90;;;;;;5006421;28;20241;-78
2021/03/21 01:58:37;;;;;;;12.23;6.40;;;5.80;99.90;;;;;;4993035;28;20484;-78
2021/03/21 02:01:13;;;;;;;8.10;4.80;;;5.70;99.90;;;;;;4990202;28;20686;-78
2021/03/21 02:03:41;;;;;;;10.17;5.40;;;5.80;99.90;;;;;;4989838;28;20747;-78
2021/03/21 02:06:33;;;;;;;9.27;5.43;;;5.70;99.90;;;;;;4990817;28;20244;-78
2021/03/21 02:09:09;;;;;;;7.43;5.03;;;5.80;99.90;;;;;;4992302;28;20285;-78
2021/03/21 02:11:53;;;;;;;6.97;4.30;;;5.80;99.90;;;;;;4995827;28;20248;-79
2021/03/21 02:14:32;;;;;;;11.97;4.53;;;5.80;99.90;;;;;;5018580;28;20256;-78
2021/03/21 02:17:08;;;;;;;7.03;4.50;;;5.80;99.90;;;;;;5009318;28;20484;-78
2021/03/21 02:20:43;;;;;;;7.00;4.20;;;5.80;99.90;;;;;;4989729;28;20244;-78
2021/03/21 02:23:16;;;;;;;6.00;3.77;;;5.80;99.90;;;;;;4936679;28;20655;-78
2021/03/21 02:26:20;;;;;;;6.10;3.73;;;5.80;99.90;;;;;;4934117;28;20239;-78
2021/03/21 02:29:24;;;;;;;6.80;4.13;;;5.80;99.90;;;;;;5003183;28;20700;-78
2021/03/21 02:31:58;;;;;;;8.10;4.10;;;5.80;99.90;;;;;;4967111;28;20273;-78
2021/03/21 02:34:38;;;;;;;8.30;4.20;;;5.80;99.90;;;;;;5015868;28;20801;-78
2021/03/21 02:37:13;;;;;;;7.57;4.60;;;5.80;99.90;;;;;;5006009;28;20541;-78
2021/03/21 02:39:51;;;;;;;6.67;3.83;;;5.70;99.90;;;;;;5004136;28;21009;-78
2021/03/21 02:42:25;;;;;;;6.60;4.10;;;5.70;99.90;;;;;;4999692;28;20333;-78
2021/03/21 02:44:59;;;;;;;7.63;4.60;;;5.70;99.90;;;;;;4994593;28;20636;-78
2021/03/21 02:47:30;;;;;;;7.10;4.10;;;5.70;99.90;;;;;;4999904;28;20241;-78
2021/03/21 02:50:01;;;;;;;7.13;3.60;;;5.70;99.90;;;;;;5008104;28;20259;-79
2021/03/21 02:52:35;;;;;;;8.20;3.77;;;5.70;99.90;;;;;;5008950;28;20259;-78
2021/03/21 02:55:14;;;;;;;8.43;3.77;;;5.70;99.90;;;;;;5017788;28;20535;-78
2021/03/21 02:57:49;;;;;;;8.20;3.83;;;5.70;99.90;;;;;;4988682;28;20226;-78
2021/03/21 03:00:26;;;;;;;5.23;3.10;;;5.70;99.90;;;;;;4988773;28;20334;-78
2021/03/21 03:02:58;;;;;;;8.60;4.13;;;5.70;99.90;;;;;;4989561;28;20319;-78
2021/03/21 03:05:32;;;;;;;9.07;4.47;;;5.70;99.90;;;;;;4988974;28;20245;-79
2021/03/21 03:08:09;;;;;;;9.30;4.00;;;5.70;99.90;;;;;;4989327;28;20248;-78
2021/03/21 03:10:41;;;;;;;13.33;5.00;;;5.70;99.90;;;;;;4996273;28;20484;-78
2021/03/21 03:13:16;;;;;;;11.60;4.50;;;5.70;99.90;;;;;;4998398;28;20914;-78
2021/03/21 03:15:45;;;;;;;8.07;3.83;;;5.70;99.90;;;;;;5002104;28;21311;-78
2021/03/21 03:18:28;;;;;;;10.40;4.63;;;5.60;99.90;;;;;;5008638;28;20229;-78
2021/03/21 03:21:04;;;;;;;8.93;4.60;;;5.70;99.90;;;;;;5008298;28;20297;-78
2021/03/21 03:23:36;;;;;;;10.43;3.93;;;5.70;99.90;;;;;;5008158;28;20260;-78
2021/03/21 03:26:08;;;;;;;5.80;3.93;;;5.70;99.90;;;;;;5003075;28;20666;-78
2021/03/21 03:28:43;;;;;;;11.77;4.23;;;5.70;99.90;;;;;;5008215;28;20476;-78
2021/03/21 03:31:18;;;;;;;9.07;4.27;;;5.70;99.90;;;;;;5007389;28;20464;-78
2021/03/21 03:33:46;;;;;;;9.30;3.60;;;5.60;99.90;;;;;;5002182;28;20736;-78
2021/03/21 03:36:16;;;;;;;9.63;3.63;;;5.60;99.90;;;;;;4988761;28;20234;-78
2021/03/21 03:38:48;;;;;;;8.63;3.73;;;5.60;99.90;;;;;;5002301;28;20252;-78
2021/03/21 03:41:28;;;;;;;8.30;3.97;;;5.60;99.90;;;;;;5003224;28;20489;-78
2021/03/21 03:44:04;;;;;;;8.10;3.17;;;5.60;99.90;;;;;;4998198;28;20279;-78
2021/03/21 03:46:40;;;;;;;10.37;3.30;;;5.60;99.90;;;;;;5003692;28;20299;-78
2021/03/21 03:49:22;;;;;;;14.87;3.20;;;5.60;99.90;;;;;;4988781;28;20240;-78
2021/03/21 03:52:18;;;;;;;9.90;3.33;;;5.60;99.90;;;;;;4988270;28;20636;-78
2021/03/21 03:54:58;;;;;;;9.30;2.90;;;5.60;99.90;;;;;;5003293;28;20245;-78
2021/03/21 03:57:29;;;;;;;10.93;3.30;;;5.60;99.90;;;;;;4988515;28;20484;-78
2021/03/21 04:00:12;;;;;;;12.20;2.73;;;5.60;99.90;;;;;;4988032;28;20248;-78
2021/03/21 04:02:57;;;;;;;12.80;2.97;;;5.60;99.90;;;;;;4990035;28;20335;-78
2021/03/21 04:05:33;;;;;;;11.10;3.10;;;5.50;99.90;;;;;;5007037;28;20514;-78
2021/03/21 04:08:08;;;;;;;11.37;2.90;;;5.50;99.90;;;;;;5020643;28;20295;-78
2021/03/21 04:10:42;;;;;;;10.20;3.13;;;5.50;99.90;;;;;;4998135;28;20236;-78
2021/03/21 04:13:15;;;;;;;11.83;2.40;;;5.50;99.90;;;;;;5008747;28;20334;-78
2021/03/21 04:15:48;;;;;;;12.63;2.63;;;5.50;99.90;;;;;;5006814;28;20327;-78
2021/03/21 04:18:25;;;;;;;14.87;2.63;;;5.50;99.90;;;;;;4992249;28;20249;-80
2021/03/21 04:21:03;;;;;;;7.57;2.50;;;5.50;99.90;;;;;;4991985;28;20811;-78
2021/03/21 04:23:36;;;;;;;9.30;2.50;;;5.50;99.90;;;;;;4992176;28;21081;-78
2021/03/21 04:26:38;;;;;;;14.87;2.63;;;5.50;99.90;;;;;;4992394;28;20572;-78
2021/03/21 04:29:12;;;;;;;14.60;2.73;;;5.50;99.90;;;;;;4994621;28;20840;-78
2021/03/21 04:31:42;;;;;;;16.98;3.35;;;5.50;99.90;;;;;;4990632;28;20436;-78
2021/03/21 04:34:13;;;;;;;16.43;3.17;;;5.50;99.90;;;;;;4997974;28;20709;-78
2021/03/21 04:36:45;;;;;;;15.40;2.80;;;5.40;99.90;;;;;;5004991;28;20572;-78
2021/03/21 04:39:15;;;;;;;19.97;3.13;;;5.50;99.90;;;;;;5002884;28;20241;-78
2021/03/21 04:41:48;;;;;;;22.80;4.03;;;5.40;99.90;;;;;;5002396;28;20229;-78
2021/03/21 04:44:19;;;;;;;15.90;3.47;;;5.40;99.90;;;;;;5009286;28;20248;-78
2021/03/21 04:46:54;;;;;;;19.30;3.03;;;5.40;99.90;;;;;;5011257;28;20240;-78
2021/03/21 04:49:23;;;;;;;15.30;2.53;;;5.30;99.90;;;;;;5010743;28;20482;-78
2021/03/21 04:52:04;;;;;;;18.73;3.70;;;5.30;99.90;;;;;;5011003;28;20240;-78
2021/03/21 04:54:35;;;;;;;22.40;3.13;;;5.30;99.90;;;;;;5010751;28;20252;-78
2021/03/21 04:57:19;;;;;;;18.23;3.70;;;5.20;99.90;;;;;;4991650;28;20242;-78
2021/03/21 04:59:47;;;;;;;25.47;4.13;;;5.20;99.90;;;;;;4990985;28;20480;-78
2021/03/21 05:02:19;;;;;;;27.00;3.63;;;5.20;99.90;;;;;;4995635;28;20477;-78
2021/03/21 05:04:53;;;;;;;26.37;3.60;;;5.10;99.90;;;;;;4999276;28;20237;-78
2021/03/21 05:07:33;;;;;;;21.67;4.87;;;5.10;99.90;;;;;;5004691;28;20592;-78
2021/03/21 05:10:14;;;;;;;30.57;4.57;;;5.10;99.90;;;;;;5009191;28;20826;-79
2021/03/21 05:12:46;;;;;;;25.00;4.60;;;5.10;99.90;;;;;;4991018;28;20476;-78
2021/03/21 05:15:23;;;;;;;31.67;4.87;;;5.10;99.90;;;;;;4991239;28;20488;-78
2021/03/21 05:18:03;;;;;;;30.13;4.27;;;5.10;99.90;;;;;;4991475;28;20475;-78
2021/03/21 05:20:38;;;;;;;26.13;4.70;;;5.00;99.90;;;;;;4990940;28;20815;-78
2021/03/21 05:23:32;;;;;;;27.57;5.13;;;5.00;99.90;;;;;;4991288;28;20319;-78
2021/03/21 05:26:05;;;;;;;27.40;5.27;;;5.00;99.90;;;;;;5005954;28;20490;-78
2021/03/21 05:29:01;;;;;;;30.70;4.73;;;5.00;99.90;;;;;;5025469;28;20507;-77
2021/03/21 05:31:30;;;;;;;23.97;4.17;;;5.00;99.90;;;;;;5009783;28;20280;-77
2021/03/21 05:33:58;;;;;;;27.50;4.87;;;5.00;99.90;;;;;;5004850;28;20992;-78
2021/03/21 05:36:57;;;;;;;24.67;5.33;;;5.00;99.90;;;;;;5005568;28;20555;-78
2021/03/21 05:39:44;;;;;;;28.97;5.33;;;5.00;99.90;;;;;;5000830;28;21023;-78
2021/03/21 05:42:55;;;;;;;30.27;6.43;;;5.00;99.90;;;;;;5010388;28;20471;-78
2021/03/21 05:46:00;;;;;;;36.80;6.20;;;5.00;99.90;;;;;;5010429;28;20491;-78
2021/03/21 05:49:34;;;;;;;29.33;5.17;;;5.00;99.90;;;;;;5010098;28;20498;-78
2021/03/21 05:53:09;;;;;;;29.80;5.20;;;5.00;99.90;;;;;;5008638;28;20549;-78
2021/03/21 05:56:15;;;;;;;39.87;5.77;;;5.00;99.90;;;;;;5002556;28;20233;-78
2021/03/21 05:59:13;;;;;;;29.67;5.77;;;5.00;99.90;;;;;;4988449;28;20475;-78
2021/03/21 06:02:15;;;;;;;26.57;4.53;;;5.00;99.90;;;;;;4999930;28;20955;-78
2021/03/21 06:05:23;;;;;;;35.17;4.97;;;5.00;99.90;;;;;;5001035;28;20988;-78
2021/03/21 06:08:27;;;;;;;36.13;6.43;;;5.00;99.90;;;;;;5005053;28;20468;-78
2021/03/21 06:11:34;;;;;;;23.50;4.23;;;5.00;99.90;;;;;;4997268;28;20241;-78
2021/03/21 06:14:49;;;;;;;19.70;4.00;;;5.10;99.90;;;;;;4989873;28;20554;-77
2021/03/21 06:18:00;;;;;;;24.20;4.73;;;5.10;99.90;;;;;;4989850;28;20492;-78
2021/03/21 06:21:33;;;;;;;40.83;7.13;;;5.10;99.90;;;;;;5004073;28;20480;-77
2021/03/21 06:24:47;;;;;;;33.70;6.03;;;5.10;99.90;;;;;;4960833;28;20857;-78
2021/03/21 06:28:12;;;;;;;29.80;5.23;;;5.10;99.90;;;;;;4989213;28;20483;-78
2021/03/21 06:31:01;;;;;;;37.33;5.80;;;5.20;99.90;;;;;;4968255;28;20468;-77
2021/03/21 06:33:46;;;;;;;42.77;6.57;;;5.20;99.90;;;;;;5002493;28;20938;-77
2021/03/21 06:36:33;;;;;;;32.43;6.13;;;5.30;99.90;;;;;;5006117;28;20968;-78
2021/03/21 06:39:44;;;;;;;35.07;6.00;;;5.30;99.90;;;;;;4993222;28;20471;-77
2021/03/21 06:42:37;;;;;;;38.47;6.00;;;5.30;99.90;;;;;;4989341;28;20534;-78
2021/03/21 06:45:50;;;;;;;37.57;6.30;;;5.30;99.90;;;;;;5004477;28;20890;-79
2021/03/21 06:48:49;;;;;;;34.37;6.27;;;5.30;99.90;;;;;;4987978;28;20248;-77
2021/03/21 06:51:28;;;;;;;24.27;5.27;;;5.40;99.90;;;;;;4987953;28;20520;-78
2021/03/21 06:54:22;;;;;;;34.57;5.80;;;5.40;99.90;;;;;;5004794;28;20340;-78
2021/03/21 06:57:23;;;;;;;39.37;6.63;;;5.40;99.90;;;;;;4991806;28;20319;-78
2021/03/21 07:00:18;;;;;;;31.07;5.63;;;5.40;99.90;;;;;;4978134;28;20791;-78
2021/03/21 07:03:48;;;;;;;41.37;7.17;;;5.50;99.90;;;;;;4993718;28;20237;-77
2021/03/21 07:07:19;;;;;;;32.27;5.57;;;5.50;99.90;;;;;;4972915;28;20708;-77
2021/03/21 07:10:40;;;;;;;28.33;5.73;;;5.60;99.90;;;;;;5008106;28;20572;-78
2021/03/21 07:13:35;;;;;;;32.80;7.10;;;5.50;99.90;;;;;;5009384;28;20236;-77
2021/03/21 07:17:18;;;;;;;36.07;6.53;;;5.60;99.90;;;;;;5009303;28;20267;-78
2021/03/21 07:20:47;;;;;;;39.57;6.53;;;5.60;99.90;;;;;;4946574;29;20243;-78
2021/03/21 07:23:40;;;;;;;37.23;7.00;;;5.70;99.90;;;;;;4997961;28;20251;-78
2021/03/21 07:27:04;;;;;;;40.17;7.13;;;5.70;99.90;;;;;;5007860;28;20284;-78
2021/03/21 07:29:44;;;;;;;42.47;6.30;;;5.80;99.90;;;;;;4985682;28;20253;-78
2021/03/21 07:33:14;;;;;;;47.47;7.60;;;5.80;99.90;;;;;;4981962;28;20237;-78
2021/03/21 07:36:05;;;;;;;36.80;6.83;;;5.80;99.90;;;;;;4997589;28;20255;-80
2021/03/21 07:38:50;;;;;;;33.63;6.90;;;5.80;99.90;;;;;;4985708;28;20331;-79
2021/03/21 07:41:25;;;;;;;42.87;7.30;;;5.80;99.90;;;;;;4987145;28;20945;-78
2021/03/21 07:44:21;;;;;;;34.70;6.87;;;5.80;99.90;;;;;;4990662;28;20237;-76
2021/03/21 07:47:22;;;;;;;36.70;6.77;;;5.80;99.90;;;;;;4996884;28;20247;-76
2021/03/21 07:50:18;;;;;;;37.33;7.70;;;5.80;99.90;;;;;;4991011;28;20248;-77
2021/03/21 07:53:17;;;;;;;35.07;5.90;;;5.80;99.90;;;;;;5004770;28;20288;-77
2021/03/21 07:55:53;;;;;;;45.10;6.93;;;5.80;99.90;;;;;;4985899;28;20241;-76
2021/03/21 07:58:30;;;;;;;47.37;7.47;;;5.80;99.90;;;;;;4989974;28;20256;-78
2021/03/21 08:00:58;;;;;;;38.60;6.93;;;5.90;99.90;;;;;;4985681;28;20247;-78
2021/03/21 08:03:46;;;;;;;41.23;7.43;;;6.00;99.90;;;;;;4985847;28;20251;-79
2021/03/21 08:06:18;;;;;;;42.93;7.00;;;6.00;99.90;;;;;;4988384;28;20251;-79
2021/03/21 08:08:56;;;;;;;40.40;6.70;;;6.00;99.90;;;;;;4992201;28;20419;-78
2021/03/21 08:11:28;;;;;;;47.20;8.57;;;6.00;99.90;;;;;;5001285;28;20302;-79
2021/03/21 08:14:12;;;;;;;38.77;7.20;;;6.10;99.90;;;;;;4995397;28;20245;-78
2021/03/21 08:16:44;;;;;;;36.57;7.03;;;6.10;99.90;;;;;;4984765;28;20234;-78
2021/03/21 08:19:22;;;;;;;31.70;7.60;;;6.10;99.90;;;;;;4985437;28;20260;-78
2021/03/21 08:21:49;;;;;;;42.20;8.57;;;6.10;99.90;;;;;;4985116;28;20333;-78
2021/03/21 08:24:23;;;;;;;40.47;7.37;;;6.10;99.90;;;;;;4997831;28;20237;-78
2021/03/21 08:26:50;;;;;;;34.57;7.30;;;6.10;99.90;;;;;;4989487;28;20306;-78
2021/03/21 08:29:21;;;;;;;35.77;7.40;;;6.10;99.90;;;;;;4986548;28;20249;-78
2021/03/21 08:32:07;;;;;;;38.60;6.67;;;6.30;99.90;;;;;;4987584;28;20241;-78
2021/03/21 08:34:47;;;;;;;30.00;6.03;;;6.40;99.90;;;;;;4989724;28;20249;-78
2021/03/21 08:37:32;;;;;;;39.20;6.60;;;6.40;99.90;;;;;;4988409;28;20240;-80
2021/03/21 08:40:17;;;;;;;33.63;5.77;;;6.30;99.90;;;;;;4989658;28;20257;-79
2021/03/21 08:42:48;;;;;;;36.53;7.07;;;6.40;99.90;;;;;;4986231;28;20245;-78
2021/03/21 08:45:36;;;;;;;23.37;5.73;;;6.50;99.90;;;;;;5003357;28;20245;-79
2021/03/21 08:48:24;;;;;;;42.20;7.67;;;6.60;99.90;;;;;;4986946;28;20252;-78
2021/03/21 08:51:24;;;;;;;42.87;7.00;;;6.80;99.90;;;;;;4997505;28;20347;-78
2021/03/21 08:53:59;;;;;;;36.47;7.27;;;6.90;99.90;;;;;;4992189;28;20248;-78
2021/03/21 08:56:30;;;;;;;35.10;6.83;;;6.90;99.90;;;;;;4990630;28;20615;-78
2021/03/21 08:59:28;;;;;;;39.27;7.20;;;6.90;99.90;;;;;;4990679;28;20257;-79
2021/03/21 09:02:01;;;;;;;39.37;6.87;;;7.00;99.90;;;;;;5002309;28;20845;-77
2021/03/21 09:04:30;;;;;;;29.47;5.80;;;7.10;99.90;;;;;;5006223;28;20249;-77
2021/03/21 09:07:26;;;;;;;34.50;6.40;;;7.10;99.90;;;;;;4998141;28;20261;-78
2021/03/21 09:10:29;;;;;;;36.87;7.97;;;7.10;99.90;;;;;;4986522;28;20272;-77
2021/03/21 09:13:16;;;;;;;36.77;7.17;;;7.20;99.90;;;;;;4996185;28;20237;-78
2021/03/21 09:15:45;;;;;;;35.37;6.80;;;7.30;99.90;;;;;;4992966;28;20249;-77
2021/03/21 09:18:28;;;;;;;29.07;6.07;;;7.20;99.90;;;;;;4997416;28;20241;-77
2021/03/21 09:21:14;;;;;;;34.20;6.40;;;7.20;99.90;;;;;;4990562;28;20242;-77
2021/03/21 09:24:11;;;;;;;36.53;7.47;;;7.20;99.90;;;;;;4990793;28;20226;-79
2021/03/21 09:26:44;;;;;;;26.43;5.23;;;7.20;99.90;;;;;;4988249;28;20268;-77
2021/03/21 09:29:32;;;;;;;30.33;5.60;;;7.20;99.90;;;;;;4994797;28;20307;-77
2021/03/21 09:32:05;;;;;;;36.03;6.27;;;7.20;99.90;;;;;;5000451;28;20558;-77
2021/03/21 09:34:54;;;;;;;35.33;5.97;;;7.30;99.90;;;;;;5006798;28;20248;-77
2021/03/21 09:37:25;;;;;;;31.20;6.43;;;7.30;99.90;;;;;;4993780;28;20733;-77
2021/03/21 09:40:03;;;;;;;33.23;5.80;;;7.40;99.90;;;;;;4994379;28;20242;-77
2021/03/21 09:42:32;;;;;;;26.43;5.33;;;7.40;99.90;;;;;;4988768;28;20292;-78
2021/03/21 09:45:00;;;;;;;32.07;7.17;;;7.40;99.90;;;;;;4998250;28;20568;-77
2021/03/21 09:47:38;;;;;;;30.33;6.27;;;7.50;99.90;;;;;;5000448;28;20314;-77
2021/03/21 09:50:46;;;;;;;39.67;7.60;;;7.80;99.90;;;;;;4995445;28;20229;-78
2021/03/21 09:53:57;;;;;;;34.20;6.77;;;7.80;99.90;;;;;;4929107;29;20369;-77
2021/03/21 09:56:38;;;;;;;33.20;6.70;;;7.90;99.90;;;;;;4991448;28;20249;-77
2021/03/21 09:59:16;;;;;;;31.67;6.23;;;8.00;99.90;;;;;;4991930;28;20269;-77
2021/03/21 10:01:52;;;;;;;29.70;5.87;;;8.20;99.90;;;;;;4993099;28;20249;-78
2021/03/21 10:04:42;;;;;;;33.23;6.00;;;8.40;99.90;;;;;;4987531;28;20238;-77
2021/03/21 10:07:25;;;;;;;27.23;5.17;;;8.40;99.90;;;;;;5010724;28;20247;-78
2021/03/21 10:09:55;;;;;;;25.07;5.23;;;8.50;99.90;;;;;;5007044;28;20772;-78
2021/03/21 10:12:25;;;;;;;26.67;5.87;;;8.50;99.90;;;;;;5010183;28;20250;-76
2021/03/21 10:15:09;;;;;;;30.73;6.00;;;8.40;99.90;;;;;;5005076;28;20250;-77
2021/03/21 10:17:57;;;;;;;29.30;5.83;;;8.30;99.90;;;;;;4991781;28;20714;-77
2021/03/21 10:21:03;;;;;;;23.30;5.57;;;8.10;99.90;;;;;;5008915;28;20237;-77
2021/03/21 10:24:14;;;;;;;32.33;6.57;;;8.00;99.90;;;;;;4997784;28;20570;-77
2021/03/21 10:27:41;;;;;;;35.03;6.10;;;8.00;99.90;;;;;;5003583;28;20276;-77
2021/03/21 10:30:24;;;;;;;25.60;5.53;;;8.20;99.90;;;;;;4982149;28;20245;-77
2021/03/21 10:33:35;;;;;;;31.50;5.30;;;8.20;99.90;;;;;;5007195;28;20241;-77
2021/03/21 10:36:03;;;;;;;26.23;5.27;;;8.20;99.90;;;;;;5000514;28;20321;-79
2021/03/21 10:38:52;;;;;;;30.47;4.73;;;8.20;99.90;;;;;;5007267;28;20268;-77
2021/03/21 10:42:05;;;;;;;22.27;4.90;;;8.40;99.90;;;;;;5007343;28;20308;-77
2021/03/21 10:45:03;;;;;;;26.40;4.60;;;8.60;99.90;;;;;;4999165;28;20240;-78
2021/03/21 10:47:47;;;;;;;23.30;4.67;;;8.60;99.90;;;;;;4988100;28;20626;-78
2021/03/21 10:51:05;;;;;;;30.80;5.20;;;8.70;99.90;;;;;;4989270;28;20246;-78
2021/03/21 10:53:36;;;;;;;28.77;5.60;;;8.80;99.90;;;;;;4999652;28;20242;-79
2021/03/21 10:56:17;;;;;;;24.53;5.53;;;9.00;99.90;;;;;;5001061;28;20320;-80
2021/03/21 10:59:15;;;;;;;22.70;4.67;;;9.10;99.90;;;;;;4988777;28;20246;-78
2021/03/21 11:01:46;;;;;;;23.07;5.03;;;9.10;99.90;;;;;;4996932;28;20237;-78
2021/03/21 11:04:40;;;;;;;26.40;5.50;;;9.00;99.90;;;;;;5007432;28;20932;-78
2021/03/21 11:07:18;;;;;;;27.60;5.23;;;8.90;99.90;;;;;;5003552;28;20299;-78
2021/03/21 11:09:56;;;;;;;22.23;4.93;;;8.90;99.90;;;;;;5006660;28;20248;-79
2021/03/21 11:12:36;;;;;;;22.13;4.83;;;9.10;99.90;;;;;;5008846;28;20291;-78
2021/03/21 11:15:19;;;;;;;24.33;4.50;;;9.10;99.90;;;;;;5008524;28;20316;-78
2021/03/21 11:17:47;;;;;;;25.23;4.60;;;9.00;99.90;;;;;;5006996;28;20727;-78
2021/03/21 11:20:26;;;;;;;25.57;4.73;;;9.10;99.90;;;;;;5004360;28;20754;-78
2021/03/21 11:22:56;;;;;;;22.07;4.50;;;9.20;99.90;;;;;;5001614;28;20241;-79
2021/03/21 11:25:36;;;;;;;20.57;4.77;;;9.10;99.90;;;;;;4996593;28;20238;-78
2021/03/21 11:28:05;;;;;;;22.00;5.67;;;9.30;99.90;;;;;;4990617;28;20315;-78
2021/03/21 11:30:36;;;;;;;20.10;4.60;;;9.50;99.90;;;;;;4984188;28;20415;-79
2021/03/21 11:33:19;;;;;;;23.30;5.33;;;9.40;99.90;;;;;;4992777;28;20242;-78
2021/03/21 11:35:50;;;;;;;17.43;4.23;;;9.70;99.90;;;;;;4989950;28;20247;-78
2021/03/21 11:38:30;;;;;;;19.90;4.40;;;9.70;99.90;;;;;;4992648;28;20373;-79
2021/03/21 11:41:00;;;;;;;20.90;4.63;;;9.60;99.90;;;;;;5006228;28;20253;-78
2021/03/21 11:43:31;;;;;;;23.67;4.20;;;9.40;99.90;;;;;;4989878;28;20257;-79
2021/03/21 11:46:13;;;;;;;19.63;4.47;;;9.30;99.90;;;;;;4992687;28;20233;-79
2021/03/21 11:48:41;;;;;;;19.87;4.57;;;9.30;99.90;;;;;;4984074;28;20586;-79
2021/03/21 11:51:11;;;;;;;22.17;5.23;;;9.30;99.90;;;;;;4985945;28;20344;-79
2021/03/21 11:53:40;;;;;;;17.23;3.87;;;9.40;99.90;;;;;;4987124;28;20241;-78
2021/03/21 11:56:25;;;;;;;18.30;4.83;;;9.30;99.90;;;;;;4987319;28;20257;-78
2021/03/21 11:58:59;;;;;;;21.87;4.70;;;9.30;99.90;;;;;;4983447;28;20721;-78
2021/03/21 12:01:40;;;;;;;21.50;4.50;;;9.30;99.90;;;;;;4993027;28;20748;-79
2021/03/21 12:04:12;;;;;;;17.50;4.10;;;9.30;99.90;;;;;;4982473;28;20236;-79
2021/03/21 12:06:47;;;;;;;23.63;5.23;;;9.30;99.90;;;;;;4989975;28;20242;-79
2021/03/21 12:09:26;;;;;;;22.50;4.17;;;9.20;99.90;;;;;;4987760;28;20838;-79
2021/03/21 12:11:55;;;;;;;24.47;5.30;;;9.10;99.90;;;;;;4987304;28;20336;-78
2021/03/21 12:14:43;;;;;;;23.70;5.27;;;9.00;99.90;;;;;;4987063;28;20331;-81
2021/03/21 12:17:35;;;;;;;26.40;5.00;;;9.10;99.90;;;;;;5009109;28;20667;-81
2021/03/21 12:20:41;;;;;;;19.27;3.97;;;9.20;99.90;;;;;;4984320;28;20336;-79
2021/03/21 12:23:30;;;;;;;20.37;4.80;;;9.20;99.90;;;;;;4989212;28;20321;-80
2021/03/21 12:26:17;;;;;;;22.40;4.07;;;9.30;99.90;;;;;;4991776;28;20253;-79
2021/03/21 12:29:01;;;;;;;24.00;5.30;;;9.20;99.90;;;;;;4986472;28;20300;-80
2021/03/21 12:31:34;;;;;;;23.00;4.43;;;9.20;99.90;;;;;;4992361;28;20251;-80
2021/03/21 12:34:38;;;;;;;26.33;5.23;;;9.20;99.90;;;;;;5000534;28;20988;-80
2021/03/21 12:37:10;;;;;;;16.27;5.03;;;9.10;99.90;;;;;;4986129;28;20352;-80
2021/03/21 12:39:40;;;;;;;27.37;5.00;;;9.10;99.90;;;;;;4988684;28;20246;-80
2021/03/21 12:42:31;;;;;;;18.03;3.90;;;9.10;99.90;;;;;;4993094;28;20249;-80
2021/03/21 12:45:13;;;;;;;19.67;4.27;;;9.10;99.90;;;;;;4988132;28;20244;-81
2021/03/21 12:47:43;;;;;;;20.27;4.20;;;9.10;99.90;;;;;;4989618;28;20234;-80
2021/03/21 12:50:46;;;;;;;22.00;4.20;;;9.20;99.90;;;;;;4986943;28;20250;-80
2021/03/21 12:53:24;;;;;;;31.43;6.57;;;9.10;99.90;;;;;;4991098;28;20251;-80
2021/03/21 12:55:54;;;;;;;27.00;5.70;;;9.10;99.90;;;;;;4987484;28;20252;-81
2021/03/21 12:58:22;;;;;;;22.90;4.70;;;9.00;99.90;;;;;;4999379;28;20727;-80
2021/03/21 13:00:51;;;;;;;22.23;4.20;;;8.90;99.90;;;;;;4986231;28;20772;-81
2021/03/21 13:03:28;;;;;;;22.53;4.50;;;8.80;99.90;;;;;;4986251;28;20257;-80
2021/03/21 13:05:57;;;;;;;22.93;4.77;;;8.90;99.90;;;;;;5004496;28;20239;-80
2021/03/21 13:08:25;;;;;;;20.87;4.47;;;8.90;99.90;;;;;;4988320;28;20312;-80
2021/03/21 13:10:52;;;;;;;19.83;4.80;;;8.90;99.90;;;;;;4992588;28;20237;-80
2021/03/21 13:13:22;;;;;;;20.90;4.67;;;8.80;99.90;;;;;;4991245;28;20253;-80
2021/03/21 13:15:49;;;;;;;16.93;4.50;;;8.70;99.90;;;;;;4988401;28;20234;-80
2021/03/21 13:18:19;;;;;;;23.77;4.53;;;8.60;99.90;;;;;;4992518;28;20253;-81
2021/03/21 13:20:52;;;;;;;18.17;5.20;;;8.50;99.90;;;;;;4990794;28;20247;-80
2021/03/21 13:23:21;;;;;;;22.30;4.63;;;8.60;99.90;;;;;;4994880;28;20265;-80
2021/03/21 13:25:49;;;;;;;20.77;4.17;;;8.70;99.90;;;;;;5008727;28;21526;-79
2021/03/21 13:28:17;;;;;;;22.17;5.03;;;8.70;99.90;;;;;;4991497;28;20313;-80
2021/03/21 13:30:49;;;;;;;24.87;5.40;;;8.80;99.90;;;;;;4996306;28;20242;-80
2021/03/21 13:33:20;;;;;;;28.30;4.87;;;8.90;99.90;;;;;;5001523;28;20632;-81
2021/03/21 13:35:52;;;;;;;16.43;4.50;;;8.80;99.90;;;;;;5002053;28;20233;-80
2021/03/21 13:38:19;;;;;;;22.67;4.27;;;8.70;99.90;;;;;;5015083;28;20237;-80
2021/03/21 13:40:47;;;;;;;17.53;3.80;;;8.60;99.90;;;;;;4994455;28;20231;-80
2021/03/21 13:43:21;;;;;;;20.53;3.50;;;8.70;99.90;;;;;;5009235;28;20257;-80
2021/03/21 13:45:52;;;;;;;24.80;4.33;;;8.60;99.90;;;;;;5004915;28;20242;-80
2021/03/21 13:48:21;;;;;;;21.00;4.13;;;8.50;99.90;;;;;;5004990;28;20276;-81
2021/03/21 13:50:50;;;;;;;20.13;4.30;;;8.50;99.90;;;;;;4993863;28;20249;-81
2021/03/21 13:53:27;;;;;;;14.43;3.63;;;8.40;99.90;;;;;;4988372;28;20252;-80
2021/03/21 13:55:56;;;;;;;20.67;4.00;;;8.40;99.90;;;;;;4989370;28;20240;-80
2021/03/21 13:58:24;;;;;;;16.73;3.13;;;8.40;99.90;;;;;;4988238;28;20250;-80
2021/03/21 14:00:56;;;;;;;19.30;3.77;;;8.50;99.90;;;;;;4991349;28;20241;-80